Terminal Aerodrome Forecast
Issued by NWS Kansas City/Pleasant Hill, MO

Home | Current Version | Previous Version | Text Only | Print | Product List | Glossary On
Versions: 1 2 3 4 5 6 7 8 9 10 11 12 13
465
FTUS43 KEAX 181136
TAFMCI
TAF
KMCI 181136Z 1812/1912 34022G33KT 6SM -RA BR OVC012
      TEMPO 1812/1815 4SM -RA BR OVC008
     FM181700 32018G30KT P6SM BKN050
     FM182300 32013KT P6SM SKC
     FM190400 29006KT P6SM SKC=

USA.gov is the U.S. government's official web portal to all federal, state and local government web resources and services.